^^
Marion, Virginia Banner
 

U.S. Satellite Loop
U.S. National Satellite Loop
View Satellite

Live Doppler Radar
Blacksburg, VA Nexrad Doppler Radar
View Radar

NW Atlantic Satellite
U.S. National Satellite Loop
View Satellite

US WX Conditions
US Weather Conditions
View Wx Conditions


USA Weather Finder


 

Adwolf, VA. Station Historical Data
[ Providing Data Since 6/07/2007 ]
Station Historical Data
Daily Summary for April 16, 2018 Units:  English    Metric   Both
« Previous Day
Next Day »
Daily Weekly Monthly Yearly Custom
  High: Low: Average:
Temperature: TemperatureF °F 28.2 °F 36.2 °F
Dew Point: DewpointF °F 23.0 °F 32.2 °F
Humidity: Humidity% 69% 85%
Wind Speed: WindSpeedMPHmph 3.0mph 6.8mph
Wind Gust: WindSpeedGustMPHmph - -
Wind- - WSW
Pressure: PressureIn in 29.58 in -
Precipitation: 0.05 in    
Historical Graphs
 
 
Tabular Data for April 16, 2018
Time Temperature Dew Point Pressure Wind Wind Speed Wind Gust Humidity Rainfall Rate (Hourly) solar Conditions
TemperatureF °F DewpointF °F PressureIn in Calm     Humidity% HourlyPrecipIn in SoftwareType W/m2 Conditions
00:00 49.1 °F 47.1 °F 29.58 in WSW 5.0 mph 12.0 mph 93% 0.00 in WeatherDisplay:10.37 W/m2 +DZ
00:10 48.7 °F 46.7 °F 29.58 in WSW 5.0 mph 13.0 mph 93% 0.00 in WeatherDisplay:10.37 W/m2 -DZ
00:20 47.1 °F 44.9 °F 29.58 in SW 6.0 mph 13.0 mph 92% 0.00 in WeatherDisplay:10.37 W/m2 -DZ
00:30 46.3 °F 44.1 °F 29.59 in WSW 5.0 mph 12.0 mph 92% 0.00 in WeatherDisplay:10.37 W/m2 OVC
00:40 46.0 °F 43.8 °F 29.60 in SW 5.0 mph 10.0 mph 92% 0.00 in WeatherDisplay:10.37 W/m2 OVC
00:50 45.5 °F 43.3 °F 29.61 in SW 5.0 mph 9.0 mph 92% 0.00 in WeatherDisplay:10.37 W/m2 OVC
01:00 45.0 °F 42.9 °F 29.62 in SW 6.0 mph 9.0 mph 92% 0.00 in WeatherDisplay:10.37 W/m2 RA
01:10 44.7 °F 42.5 °F 29.63 in WSW 5.0 mph 10.0 mph 92% 0.00 in WeatherDisplay:10.37 W/m2 RA
01:20 44.4 °F 42.5 °F 29.63 in WSW 6.0 mph 10.0 mph 93% 0.00 in WeatherDisplay:10.37 W/m2 OVC
01:30 44.1 °F 42.2 °F 29.63 in WSW 5.0 mph 12.0 mph 93% 0.00 in WeatherDisplay:10.37 W/m2 RA
01:40 43.8 °F 41.9 °F 29.63 in West 6.0 mph 10.0 mph 93% 0.00 in WeatherDisplay:10.37 W/m2 OVC
01:50 43.3 °F 41.1 °F 29.63 in WSW 5.0 mph 10.0 mph 92% 0.00 in WeatherDisplay:10.37 W/m2 OVC
02:00 43.1 °F 40.9 °F 29.64 in WSW 3.0 mph 10.0 mph 92% 0.00 in WeatherDisplay:10.37 W/m2 OVC
02:10 42.5 °F 40.4 °F 29.65 in WSW 5.0 mph 11.0 mph 92% 0.00 in WeatherDisplay:10.37 W/m2 OVC
02:20 41.6 °F 39.2 °F 29.65 in WSW 6.0 mph 16.0 mph 91% 0.00 in WeatherDisplay:10.37 W/m2 OVC
02:30 41.2 °F 38.8 °F 29.65 in WSW 6.0 mph 12.0 mph 91% 0.00 in WeatherDisplay:10.37 W/m2 OVC
02:40 40.9 °F 38.2 °F 29.66 in WSW 3.0 mph 10.0 mph 90% 0.00 in WeatherDisplay:10.37 W/m2 OVC
02:50 40.7 °F 38.3 °F 29.66 in WSW 3.0 mph 9.0 mph 91% 0.00 in WeatherDisplay:10.37 W/m2 OVC
03:00 40.4 °F 38.0 °F 29.66 in WSW 5.0 mph 10.0 mph 91% 0.00 in WeatherDisplay:10.37 W/m2 OVC
03:10 40.2 °F 37.8 °F 29.67 in WSW 5.0 mph 14.0 mph 91% 0.00 in WeatherDisplay:10.37 W/m2 OVC
03:20 40.0 °F 37.3 °F 29.67 in WSW 6.0 mph 12.0 mph 90% 0.00 in WeatherDisplay:10.37 W/m2 OVC
03:30 39.7 °F 36.8 °F 29.67 in WSW 6.0 mph 12.0 mph 89% 0.00 in WeatherDisplay:10.37 W/m2 OVC
03:40 39.4 °F 36.8 °F 29.67 in WSW 5.0 mph 12.0 mph 90% 0.00 in WeatherDisplay:10.37 W/m2 OVC
03:50 39.1 °F 36.1 °F 29.67 in WSW 7.0 mph 13.0 mph 89% 0.00 in WeatherDisplay:10.37 W/m2 -DZ
04:00 38.9 °F 36.2 °F 29.67 in WSW 6.0 mph 10.0 mph 90% 0.00 in WeatherDisplay:10.37 W/m2 -DZ
04:10 38.8 °F 36.2 °F 29.66 in WSW 3.0 mph 8.0 mph 90% 0.00 in WeatherDisplay:10.37 W/m2 OVC
04:20 38.8 °F 36.1 °F 29.66 in WSW 6.0 mph 13.0 mph 90% 0.00 in WeatherDisplay:10.37 W/m2 OVC
04:30 38.9 °F 35.9 °F 29.67 in WSW 3.0 mph 13.0 mph 89% 0.00 in WeatherDisplay:10.37 W/m2 OVC
04:40 38.9 °F 35.9 °F 29.67 in WSW 6.0 mph 10.0 mph 89% 0.00 in WeatherDisplay:10.37 W/m2 OVC
04:50 38.9 °F 35.9 °F 29.67 in WSW 6.0 mph 10.0 mph 89% 0.00 in WeatherDisplay:10.37 W/m2 OVC
05:00 38.8 °F 35.8 °F 29.67 in WSW 6.0 mph 13.0 mph 89% 0.00 in WeatherDisplay:10.37 W/m2 OVC
05:10 38.7 °F 35.7 °F 29.67 in WSW 5.0 mph 12.0 mph 89% 0.00 in WeatherDisplay:10.37 W/m2 OVC
05:20 38.6 °F 35.6 °F 29.67 in WSW 6.0 mph 12.0 mph 89% 0.00 in WeatherDisplay:10.37 W/m2 OVC
05:30 38.6 °F 35.6 °F 29.67 in WSW 3.0 mph 9.0 mph 89% 0.00 in WeatherDisplay:10.37 W/m2 OVC
05:40 38.4 °F 35.7 °F 29.67 in WSW 5.0 mph 12.0 mph 90% 0.00 in WeatherDisplay:10.37 W/m2 OVC
05:50 38.3 °F 35.6 °F 29.68 in WSW 6.0 mph 10.0 mph 90% 0.00 in WeatherDisplay:10.37 W/m2 OVC
06:00 38.2 °F 35.5 °F 29.68 in WSW 5.0 mph 14.0 mph 90% 0.00 in WeatherDisplay:10.37 W/m2 OVC
06:10 38.0 °F 35.3 °F 29.68 in WSW 6.0 mph 10.0 mph 90% 0.00 in WeatherDisplay:10.37 W/m2 OVC
06:20 37.8 °F 35.1 °F 29.68 in SW 8.0 mph 13.0 mph 90% 0.00 in WeatherDisplay:10.37 W/m2 OVC
06:30 37.8 °F 35.4 °F 29.69 in SW 6.0 mph 13.0 mph 91% 0.00 in WeatherDisplay:10.37 W/m2 -DZ
06:40 37.7 °F 35.3 °F 29.69 in WSW 5.0 mph 12.0 mph 91% 0.00 in WeatherDisplay:10.37 W/m2 -DZ
06:50 37.7 °F 35.3 °F 29.69 in WSW 3.0 mph 12.0 mph 91% 0.00 in WeatherDisplay:10.37 W/m2 OVC
07:00 37.7 °F 35.3 °F 29.70 in SW 5.0 mph 15.0 mph 91% 0.00 in WeatherDisplay:10.37 W/m2 OVC
07:10 37.4 °F 35.0 °F 29.70 in WSW 5.0 mph 9.0 mph 91% 0.00 in WeatherDisplay:10.37 W/m2 -RA
07:20 37.1 °F 34.4 °F 29.70 in WSW 7.0 mph 12.0 mph 90% 0.00 in WeatherDisplay:10.37 W/m2 -RA
07:30 37.1 °F 33.8 °F 29.72 in WSW 7.0 mph 16.0 mph 88% 0.00 in WeatherDisplay:10.37 W/m2 OVC
07:40 37.2 °F 33.7 °F 29.72 in WSW 7.0 mph 13.0 mph 87% 0.00 in WeatherDisplay:10.37 W/m2 OVC
07:50 37.2 °F 33.4 °F 29.73 in SW 7.0 mph 13.0 mph 86% 0.00 in WeatherDisplay:10.37 W/m2 OVC
08:00 37.3 °F 33.2 °F 29.73 in WSW 6.0 mph 13.0 mph 85% 0.00 in WeatherDisplay:10.37 W/m2 OVC
08:10 37.2 °F 33.4 °F 29.73 in WSW 7.0 mph 14.0 mph 86% 0.00 in WeatherDisplay:10.37 W/m2 OVC
08:20 37.3 °F 33.8 °F 29.73 in WSW 7.0 mph 12.0 mph 87% 0.00 in WeatherDisplay:10.37 W/m2 OVC
08:30 37.5 °F 33.4 °F 29.74 in WSW 6.0 mph 15.0 mph 85% 0.00 in WeatherDisplay:10.37 W/m2 -RA
08:40 37.7 °F 33.9 °F 29.74 in SW 7.0 mph 12.0 mph 86% 0.00 in WeatherDisplay:10.37 W/m2 -RA
08:50 37.6 °F 34.1 °F 29.74 in WSW 7.0 mph 15.0 mph 87% 0.00 in WeatherDisplay:10.37 W/m2 OVC
09:00 37.5 °F 34.0 °F 29.75 in WSW 8.0 mph 15.0 mph 87% 0.00 in WeatherDisplay:10.37 W/m2 OVC
09:10 37.6 °F 33.5 °F 29.75 in WSW 6.0 mph 13.0 mph 85% 0.00 in WeatherDisplay:10.37 W/m2 OVC
09:20 37.9 °F 33.5 °F 29.75 in WSW 7.0 mph 12.0 mph 84% 0.00 in WeatherDisplay:10.37 W/m2 OVC
09:30 37.9 °F 33.8 °F 29.75 in WSW 7.0 mph 12.0 mph 85% 0.00 in WeatherDisplay:10.37 W/m2 OVC
09:40 37.4 °F 33.6 °F 29.76 in WSW 9.0 mph 16.0 mph 86% 0.00 in WeatherDisplay:10.37 W/m2 OVC
09:50 35.6 °F 33.0 °F 29.76 in WSW 7.0 mph 14.0 mph 90% 0.00 in WeatherDisplay:10.37 W/m2 RA
10:00 36.2 °F 33.8 °F 29.77 in WSW 5.0 mph 15.0 mph 91% 0.00 in WeatherDisplay:10.37 W/m2 OVC
10:10 37.0 °F 34.3 °F 29.77 in WSW 8.0 mph 13.0 mph 90% 0.00 in WeatherDisplay:10.37 W/m2 -SN
10:20 37.2 °F 34.3 °F 29.77 in West 5.0 mph 15.0 mph 89% 0.00 in WeatherDisplay:10.37 W/m2 -SN
10:30 38.5 °F 35.5 °F 29.77 in WSW 6.0 mph 13.0 mph 89% 0.00 in WeatherDisplay:10.37 W/m2 OVC
10:40 38.4 °F 34.6 °F 29.78 in WSW 6.0 mph 13.0 mph 86% 0.00 in WeatherDisplay:10.37 W/m2 OVC
10:50 38.3 °F 35.1 °F 29.78 in WSW 5.0 mph 10.0 mph 88% 0.00 in WeatherDisplay:10.37 W/m2 OVC
11:00 38.4 °F 34.9 °F 29.78 in SW 6.0 mph 13.0 mph 87% 0.00 in WeatherDisplay:10.37 W/m2 OVC
11:10 37.9 °F 34.7 °F 29.78 in SW 7.0 mph 13.0 mph 88% 0.00 in WeatherDisplay:10.37 W/m2 OVC
11:20 38.1 °F 34.0 °F 29.78 in WSW 7.0 mph 17.0 mph 85% 0.00 in WeatherDisplay:10.37 W/m2 OVC
11:30 38.5 °F 33.8 °F 29.78 in WSW 8.0 mph 16.0 mph 83% 0.00 in WeatherDisplay:10.37 W/m2 OVC
11:40 39.8 °F 34.7 °F 29.78 in WSW 8.0 mph 14.0 mph 82% 0.00 in WeatherDisplay:10.37 W/m2 RA
11:50 38.9 °F 33.0 °F 29.79 in WSW 13.0 mph 25.0 mph 79% 0.00 in WeatherDisplay:10.37 W/m2 OVC
12:00 35.5 °F 32.3 °F 29.79 in WSW 5.0 mph 25.0 mph 88% 0.00 in WeatherDisplay:10.37 W/m2 OVC
12:10 36.8 °F 34.2 °F 29.78 in WSW 8.0 mph 13.0 mph 90% 0.00 in WeatherDisplay:10.37 W/m2 OVC
12:20 38.5 °F 34.4 °F 29.78 in WSW 8.0 mph 16.0 mph 85% 0.00 in WeatherDisplay:10.37 W/m2 OVC
12:30 37.7 °F 34.8 °F 29.77 in WSW 6.0 mph 15.0 mph 89% 0.00 in WeatherDisplay:10.37 W/m2 OVC
12:40 39.0 °F 35.5 °F 29.77 in SW 7.0 mph 14.0 mph 87% 0.00 in WeatherDisplay:10.37 W/m2 OVC
12:50 39.7 °F 35.0 °F 29.76 in WSW 5.0 mph 14.0 mph 83% 0.00 in WeatherDisplay:10.37 W/m2 OVC
13:00 39.5 °F 33.8 °F 29.76 in WSW 9.0 mph 14.0 mph 80% 0.00 in WeatherDisplay:10.37 W/m2 OVC
13:10 39.2 °F 33.2 °F 29.76 in WSW 8.0 mph 15.0 mph 79% 0.00 in WeatherDisplay:10.37 W/m2 OVC
13:20 38.5 °F 33.8 °F 29.78 in West 8.0 mph 15.0 mph 83% 0.00 in WeatherDisplay:10.37 W/m2 OVC
13:30 37.4 °F 33.6 °F 29.78 in WSW 9.0 mph 15.0 mph 86% 0.00 in WeatherDisplay:10.37 W/m2 OVC
13:40 36.8 °F 33.0 °F 29.78 in WSW 10.0 mph 16.0 mph 86% 0.00 in WeatherDisplay:10.37 W/m2 OVC
13:50 37.1 °F 32.4 °F 29.78 in WSW 8.0 mph 16.0 mph 83% 0.00 in WeatherDisplay:10.37 W/m2 OVC
14:00 37.6 °F 33.2 °F 29.78 in WSW 7.0 mph 18.0 mph 84% 0.00 in WeatherDisplay:10.37 W/m2 OVC
14:10 38.4 °F 32.8 °F 29.78 in WSW 12.0 mph 18.0 mph 80% 0.00 in WeatherDisplay:10.37 W/m2 OVC
14:20 36.4 °F 32.0 °F 29.79 in WSW 7.0 mph 26.0 mph 84% 0.00 in WeatherDisplay:10.37 W/m2 OVC
14:30 37.4 °F 31.2 °F 29.79 in WSW 10.0 mph 21.0 mph 78% 0.00 in WeatherDisplay:10.37 W/m2 -SN
14:40 37.9 °F 30.4 °F 29.79 in WSW 10.0 mph 23.0 mph 74% 0.00 in WeatherDisplay:10.37 W/m2 -SN
14:50 38.6 °F 30.7 °F 29.79 in WSW 7.0 mph 16.0 mph 73% 0.00 in WeatherDisplay:10.37 W/m2 -SN
15:00 39.0 °F 30.7 °F 29.79 in WSW 8.0 mph 17.0 mph 72% 0.00 in WeatherDisplay:10.37 W/m2 -SN
15:10 38.2 °F 28.9 °F 29.79 in West 10.0 mph 24.0 mph 69% 0.00 in WeatherDisplay:10.37 W/m2 -RA
15:20 37.7 °F 29.5 °F 29.80 in West 7.0 mph 17.0 mph 72% 0.00 in WeatherDisplay:10.37 W/m2 -RA
15:30 37.7 °F 29.1 °F 29.80 in WSW 8.0 mph 17.0 mph 71% 0.00 in WeatherDisplay:10.37 W/m2 OVC
15:40 37.7 °F 29.1 °F 29.80 in West 8.0 mph 13.0 mph 71% 0.00 in WeatherDisplay:10.37 W/m2 OVC
15:50 37.7 °F 28.8 °F 29.80 in West 8.0 mph 13.0 mph 70% 0.00 in WeatherDisplay:10.37 W/m2 OVC
16:00 37.9 °F 28.6 °F 29.80 in WSW 6.0 mph 13.0 mph 69% 0.00 in WeatherDisplay:10.37 W/m2 OVC
16:10 37.5 °F 28.6 °F 29.81 in West 10.0 mph 16.0 mph 70% 0.00 in WeatherDisplay:10.37 W/m2 OVC
16:20 36.8 °F 29.0 °F 29.81 in WSW 8.0 mph 18.0 mph 73% 0.00 in WeatherDisplay:10.37 W/m2 OVC
16:30 36.4 °F 28.9 °F 29.82 in WSW 9.0 mph 20.0 mph 74% 0.00 in WeatherDisplay:10.37 W/m2 OVC
16:40 36.1 °F 28.6 °F 29.82 in WSW 7.0 mph 17.0 mph 74% 0.00 in WeatherDisplay:10.37 W/m2 OVC
16:50 35.7 °F 27.2 °F 29.83 in WSW 9.0 mph 18.0 mph 71% 0.00 in WeatherDisplay:10.37 W/m2 OVC
17:00 35.4 °F 26.6 °F 29.83 in WSW 12.0 mph 22.0 mph 70% 0.00 in WeatherDisplay:10.37 W/m2 OVC
17:10 35.3 °F 27.2 °F 29.84 in WSW 10.0 mph 17.0 mph 72% 0.00 in WeatherDisplay:10.37 W/m2 OVC
17:20 35.0 °F 26.9 °F 29.85 in WSW 9.0 mph 20.0 mph 72% 0.00 in WeatherDisplay:10.37 W/m2 OVC
17:30 34.6 °F 26.2 °F 29.86 in WSW 10.0 mph 18.0 mph 71% 0.00 in WeatherDisplay:10.37 W/m2 OVC
17:40 34.2 °F 27.7 °F 29.87 in WSW 8.0 mph 17.0 mph 77% 0.00 in WeatherDisplay:10.37 W/m2 OVC
17:50 32.3 °F 28.5 °F 29.88 in West 9.0 mph 15.0 mph 86% 0.00 in WeatherDisplay:10.37 W/m2 -SN
18:00 31.1 °F 28.0 °F 29.88 in WSW 7.0 mph 14.0 mph 88% 0.00 in WeatherDisplay:10.37 W/m2 -SN
18:10 31.1 °F 28.5 °F 29.89 in WSW 5.0 mph 13.0 mph 90% 0.00 in WeatherDisplay:10.37 W/m2 -SN
18:20 30.7 °F 28.4 °F 29.89 in WSW 6.0 mph 14.0 mph 91% 0.00 in WeatherDisplay:10.37 W/m2 -SN
18:30 30.6 °F 28.6 °F 29.90 in WSW 5.0 mph 12.0 mph 92% 0.00 in WeatherDisplay:10.37 W/m2 -SN
18:40 30.8 °F 28.5 °F 29.90 in WSW 8.0 mph 14.0 mph 91% 0.00 in WeatherDisplay:10.37 W/m2 -SN
18:50 30.8 °F 28.2 °F 29.91 in WSW 8.0 mph 16.0 mph 90% 0.00 in WeatherDisplay:10.37 W/m2 -SN
19:00 30.8 °F 27.9 °F 29.91 in WSW 7.0 mph 16.0 mph 89% 0.00 in WeatherDisplay:10.37 W/m2 -SN
19:10 31.0 °F 27.6 °F 29.91 in WSW 7.0 mph 13.0 mph 87% 0.00 in WeatherDisplay:10.37 W/m2 -SN
19:20 31.1 °F 27.7 °F 29.91 in WSW 8.0 mph 15.0 mph 87% 0.00 in WeatherDisplay:10.37 W/m2 -SN
19:30 30.9 °F 27.4 °F 29.92 in WSW 10.0 mph 16.0 mph 87% 0.00 in WeatherDisplay:10.37 W/m2 OVC
19:40 29.9 °F 27.3 °F 29.93 in WSW 9.0 mph 20.0 mph 90% 0.00 in WeatherDisplay:10.37 W/m2 OVC
19:50 29.2 °F 26.9 °F 29.93 in SW 10.0 mph 17.0 mph 91% 0.00 in WeatherDisplay:10.37 W/m2 OVC
20:00 29.2 °F 27.2 °F 29.94 in WSW 8.0 mph 15.0 mph 92% 0.00 in WeatherDisplay:10.37 W/m2 OVC
20:10 29.3 °F 27.2 °F 29.94 in WSW 6.0 mph 12.0 mph 92% 0.00 in WeatherDisplay:10.37 W/m2 OVC
20:20 29.3 °F 27.0 °F 29.95 in WSW 7.0 mph 15.0 mph 91% 0.00 in WeatherDisplay:10.37 W/m2 OVC
20:30 29.0 °F 26.7 °F 29.96 in WSW 9.0 mph 18.0 mph 91% 0.00 in WeatherDisplay:10.37 W/m2 OVC
20:40 28.7 °F 26.4 °F 29.97 in WSW 6.0 mph 15.0 mph 91% 0.00 in WeatherDisplay:10.37 W/m2 OVC
20:50 28.3 °F 26.3 °F 29.97 in WSW 7.0 mph 17.0 mph 92% 0.00 in WeatherDisplay:10.37 W/m2 -SN
21:00 28.5 °F 25.7 °F 29.98 in WSW 10.0 mph 15.0 mph 89% 0.00 in WeatherDisplay:10.37 W/m2 -SN
21:10 28.2 °F 25.1 °F 29.99 in WSW 6.0 mph 14.0 mph 88% 0.00 in WeatherDisplay:10.37 W/m2 BKN
21:20 28.3 °F 24.4 °F 29.99 in West 8.0 mph 16.0 mph 85% 0.00 in WeatherDisplay:10.37 W/m2 BKN
21:30 28.6 °F 23.6 °F 30.00 in WSW 7.0 mph 16.0 mph 81% 0.00 in WeatherDisplay:10.37 W/m2 OVC
21:40 28.8 °F 23.1 °F 30.00 in WSW 6.0 mph 12.0 mph 79% 0.00 in WeatherDisplay:10.37 W/m2 OVC
21:50 29.0 °F 23.0 °F 30.00 in WSW 9.0 mph 12.0 mph 78% 0.00 in WeatherDisplay:10.37 W/m2 OVC
22:00 29.0 °F 23.0 °F 30.00 in WSW 7.0 mph 15.0 mph 78% 0.00 in WeatherDisplay:10.37 W/m2 OVC
22:10 29.1 °F 23.4 °F 30.00 in WSW 6.0 mph 12.0 mph 79% 0.00 in WeatherDisplay:10.37 W/m2 OVC
22:20 28.8 °F 23.1 °F 30.00 in WSW 6.0 mph 15.0 mph 79% 0.00 in WeatherDisplay:10.37 W/m2 OVC
22:30 28.5 °F 23.4 °F 30.00 in WSW 6.0 mph 13.0 mph 81% 0.00 in WeatherDisplay:10.37 W/m2 OVC
22:40 28.3 °F 23.6 °F 30.01 in WSW 5.0 mph 13.0 mph 82% 0.00 in WeatherDisplay:10.37 W/m2 OVC
22:50 28.3 °F 23.5 °F 30.02 in WSW 8.0 mph 14.0 mph 82% 0.00 in WeatherDisplay:10.37 W/m2 OVC
23:00 28.4 °F 23.9 °F 30.02 in WSW 6.0 mph 15.0 mph 83% 0.00 in WeatherDisplay:10.37 W/m2 OVC
23:10 28.3 °F 24.1 °F 30.02 in WSW 8.0 mph 14.0 mph 84% 0.00 in WeatherDisplay:10.37 W/m2 OVC
23:20 28.3 °F 24.1 °F 30.02 in WSW 8.0 mph 15.0 mph 84% 0.00 in WeatherDisplay:10.37 W/m2 OVC
23:30 28.3 °F 24.1 °F 30.02 in WSW 8.0 mph 18.0 mph 84% 0.00 in WeatherDisplay:10.37 W/m2 -SN
23:40 28.4 °F 23.6 °F 30.02 in WSW 7.0 mph 15.0 mph 82% 0.00 in WeatherDisplay:10.37 W/m2 -SN
23:50 28.4 °F 23.9 °F 30.02 in WSW 5.0 mph 15.0 mph 83% 0.00 in WeatherDisplay:10.37 W/m2 -SN
Smyth Weather
Compliments of Weather Underground - 1.5 mb